createdAt,value
2022-07-30T00:02:19.742Z,8.88
2022-07-30T00:06:21.852Z,7.25
2022-07-30T00:10:24.793Z,8.48
2022-07-30T00:14:27.071Z,7.85
2022-07-30T00:18:28.826Z,7.43
2022-07-30T00:22:31.696Z,7.80
2022-07-30T00:26:33.631Z,7.63
2022-07-30T00:30:36.025Z,7.75
2022-07-30T00:34:37.921Z,8.75
2022-07-30T00:38:39.633Z,9.27
2022-07-30T00:42:44.099Z,8.50
2022-07-30T00:46:45.832Z,8.85
2022-07-30T00:50:47.770Z,8.85
2022-07-30T00:54:50.321Z,7.95
2022-07-30T00:58:52.082Z,9.15
2022-07-30T01:02:53.797Z,8.75
2022-07-30T01:06:55.801Z,8.63
2022-07-30T01:10:57.582Z,7.80
2022-07-30T01:15:01.474Z,8.18
2022-07-30T01:19:26.432Z,7.28
2022-07-30T01:23:36.017Z,6.45
2022-07-30T01:27:46.023Z,7.88
2022-07-30T01:31:49.289Z,7.50
2022-07-30T01:35:52.711Z,7.28
2022-07-30T01:39:55.467Z,7.38
2022-07-30T01:43:58.018Z,7.40
2022-07-30T01:48:02.759Z,6.90
2022-07-30T01:52:05.603Z,7.85
2022-07-30T01:56:10.881Z,8.32
2022-07-30T02:00:14.172Z,7.15
2022-07-30T02:04:19.568Z,10.20
2022-07-30T02:08:28.885Z,10.07
2022-07-30T02:12:32.561Z,9.75
2022-07-30T02:16:40.449Z,9.90
2022-07-30T02:20:46.788Z,11.02
2022-07-30T02:24:53.393Z,11.02
2022-07-30T02:28:59.139Z,10.55
2022-07-30T02:33:05.597Z,10.40
2022-07-30T02:37:11.010Z,10.45
2022-07-30T02:41:13.338Z,9.60
2022-07-30T02:45:17.894Z,8.73
2022-07-30T02:49:22.346Z,9.02
2022-07-30T02:53:26.189Z,8.60
2022-07-30T02:57:28.710Z,8.30
2022-07-30T03:01:32.896Z,8.77
2022-07-30T03:05:35.495Z,7.95
2022-07-30T03:09:50.728Z,7.28
2022-07-30T03:13:53.313Z,7.95
2022-07-30T03:17:57.005Z,7.50
2022-07-30T03:22:02.472Z,7.72
2022-07-30T03:26:06.860Z,7.85
2022-07-30T03:30:09.766Z,7.93
2022-07-30T03:34:12.969Z,7.70
2022-07-30T03:38:17.633Z,7.38
2022-07-30T03:42:19.951Z,8.15
2022-07-30T03:46:22.617Z,8.13
2022-07-30T03:50:24.508Z,8.02
2022-07-30T03:54:26.854Z,7.50
2022-07-30T03:58:30.528Z,8.10
2022-07-30T04:02:41.985Z,7.90
2022-07-30T04:06:43.716Z,8.50
2022-07-30T04:10:48.437Z,8.95
2022-07-30T04:14:50.200Z,8.07
2022-07-30T04:18:54.672Z,9.10
2022-07-30T04:22:58.155Z,9.43
2022-07-30T04:27:01.513Z,9.60
2022-07-30T04:31:05.030Z,8.82
2022-07-30T04:35:07.047Z,9.80
2022-07-30T04:39:08.827Z,9.95
2022-07-30T04:43:10.552Z,9.27
2022-07-30T04:47:12.642Z,10.10
2022-07-30T04:51:35.314Z,9.77
2022-07-30T04:55:42.045Z,9.73
2022-07-30T04:59:44.262Z,10.55
2022-07-30T05:03:47.658Z,9.88
2022-07-30T05:07:49.632Z,9.85
2022-07-30T05:11:56.260Z,10.05
2022-07-30T05:15:58.012Z,10.32
2022-07-30T05:20:00.059Z,9.55
2022-07-30T05:24:01.751Z,10.02
2022-07-30T05:28:04.806Z,9.90
2022-07-30T05:32:07.326Z,9.02
2022-07-30T05:36:09.525Z,9.75
2022-07-30T05:40:12.267Z,9.43
2022-07-30T05:44:14.146Z,10.23
2022-07-30T05:48:15.862Z,9.23
2022-07-30T05:52:17.661Z,9.48
2022-07-30T05:56:19.856Z,9.57
2022-07-30T06:00:21.535Z,8.25
2022-07-30T06:04:23.439Z,8.25
2022-07-30T06:08:25.141Z,7.80
2022-07-30T06:12:28.295Z,7.70
2022-07-30T06:16:31.047Z,7.38
2022-07-30T06:20:38.980Z,6.70
2022-07-30T06:24:40.755Z,6.65
2022-07-30T06:28:42.662Z,6.88
2022-07-30T06:32:45.678Z,6.82
2022-07-30T06:36:51.095Z,5.60
2022-07-30T06:40:53.393Z,6.50
2022-07-30T06:44:55.231Z,5.78
2022-07-30T06:48:57.131Z,5.85
2022-07-30T06:52:58.920Z,6.45
2022-07-30T06:57:00.911Z,6.40
2022-07-30T07:01:03.202Z,5.80
2022-07-30T07:05:13.285Z,6.32
2022-07-30T07:09:15.011Z,7.07
2022-07-30T07:13:16.833Z,6.63
2022-07-30T07:17:18.664Z,6.82
2022-07-30T07:21:20.804Z,6.65
2022-07-30T07:25:22.788Z,6.97
2022-07-30T07:29:24.513Z,6.32
2022-07-30T07:33:26.211Z,6.72
2022-07-30T07:37:28.354Z,7.38
2022-07-30T07:41:30.106Z,7.30
2022-07-30T07:45:51.266Z,6.68
2022-07-30T07:49:55.745Z,7.10
2022-07-30T07:54:18.980Z,8.82
2022-07-30T07:58:25.419Z,7.95
2022-07-30T08:02:28.147Z,7.82
2022-07-30T08:06:29.901Z,8.32
2022-07-30T08:10:31.902Z,7.50
2022-07-30T08:14:33.833Z,6.03
2022-07-30T08:18:37.081Z,6.47
2022-07-30T08:22:39.142Z,6.40
2022-07-30T08:26:40.913Z,5.95
2022-07-30T08:30:42.886Z,5.60
2022-07-30T08:34:44.681Z,5.22
2022-07-30T08:38:46.884Z,4.93
2022-07-30T08:42:48.750Z,4.60
2022-07-30T08:46:56.212Z,4.22
2022-07-30T08:50:59.500Z,4.03
2022-07-30T08:55:01.534Z,4.18
2022-07-30T08:59:03.665Z,4.28
2022-07-30T09:03:05.834Z,4.80
2022-07-30T09:07:07.646Z,3.90
2022-07-30T09:11:10.588Z,4.40
2022-07-30T09:15:15.661Z,4.72
2022-07-30T09:19:20.189Z,5.25
2022-07-30T09:23:21.935Z,3.55
2022-07-30T09:27:23.651Z,3.22
2022-07-30T09:31:25.472Z,3.20
2022-07-30T09:35:27.813Z,3.30
2022-07-30T09:39:37.909Z,3.35
2022-07-30T09:43:48.552Z,2.85
2022-07-30T09:47:50.482Z,3.00
2022-07-30T09:51:56.623Z,3.10
2022-07-30T09:55:59.673Z,2.90
2022-07-30T10:04:44.796Z,2.78
2022-07-30T10:08:55.111Z,2.40
2022-07-30T10:13:04.652Z,2.75
2022-07-30T10:17:06.553Z,2.70
2022-07-30T10:21:08.997Z,2.50
2022-07-30T10:25:11.981Z,3.03
2022-07-30T10:29:19.232Z,2.65
2022-07-30T10:33:35.146Z,2.83
2022-07-30T10:37:43.353Z,2.42
2022-07-30T10:42:12.443Z,2.40
2022-07-30T10:46:36.907Z,2.28
2022-07-30T10:50:53.577Z,2.17
2022-07-30T10:54:55.418Z,2.20
2022-07-30T10:59:05.574Z,2.00
2022-07-30T11:03:17.135Z,2.22
2022-07-30T11:07:25.761Z,2.20
2022-07-30T11:12:01.868Z,2.35
2022-07-30T11:16:01.540Z,2.30
2022-07-30T11:20:07.184Z,2.30
2022-07-30T11:24:46.413Z,2.20
2022-07-30T11:28:49.758Z,2.45
2022-07-30T11:32:53.381Z,2.42
2022-07-30T11:37:18.661Z,2.15
2022-07-30T11:41:25.699Z,2.22
2022-07-30T11:45:29.387Z,2.20
2022-07-30T11:49:37.429Z,2.53
2022-07-30T11:53:39.204Z,2.50
2022-07-30T11:57:42.218Z,2.30
2022-07-30T12:01:43.968Z,2.08
2022-07-30T12:05:46.052Z,2.22
2022-07-30T12:09:54.430Z,1.83
2022-07-30T12:14:00.032Z,2.10
2022-07-30T12:22:23.607Z,2.35
2022-07-30T12:26:29.953Z,2.38
2022-07-30T12:30:31.817Z,2.20
2022-07-30T12:34:33.978Z,2.10
2022-07-30T12:38:48.834Z,2.08
2022-07-30T12:42:52.725Z,2.20
2022-07-30T12:46:54.507Z,1.90
2022-07-30T12:51:10.693Z,1.88
2022-07-30T12:55:13.627Z,1.40
2022-07-30T12:59:22.545Z,1.75
2022-07-30T13:03:26.055Z,1.92
2022-07-30T13:07:32.074Z,1.58
2022-07-30T13:11:48.694Z,1.70
2022-07-30T13:16:06.925Z,1.75
2022-07-30T13:20:09.732Z,1.92
2022-07-30T13:24:18.277Z,1.77
2022-07-30T13:28:20.420Z,1.70
2022-07-30T13:32:22.171Z,1.90
2022-07-30T13:36:24.193Z,1.60
2022-07-30T13:40:25.910Z,1.90
2022-07-30T13:44:27.657Z,1.60
2022-07-30T13:48:29.393Z,1.70
2022-07-30T13:52:31.206Z,1.60
2022-07-30T13:56:33.030Z,1.55
2022-07-30T14:00:45.175Z,1.45
2022-07-30T14:04:46.931Z,1.70
2022-07-30T14:08:49.763Z,1.75
2022-07-30T14:12:55.833Z,1.70
2022-07-30T14:16:57.651Z,1.60
2022-07-30T14:21:00.070Z,1.40
2022-07-30T14:25:01.843Z,1.45
2022-07-30T14:29:07.079Z,1.42
2022-07-30T14:33:09.008Z,2.13
2022-07-30T14:37:14.442Z,1.60
2022-07-30T14:41:16.582Z,1.60
2022-07-30T14:45:18.343Z,2.10
2022-07-30T14:49:21.716Z,1.75
2022-07-30T14:53:24.738Z,1.40
2022-07-30T14:57:26.613Z,1.55
2022-07-30T15:01:28.517Z,1.80
2022-07-30T15:05:30.814Z,1.40
2022-07-30T15:09:34.229Z,1.88
2022-07-30T15:13:36.997Z,2.00
2022-07-30T15:17:40.477Z,1.65
2022-07-30T15:21:44.658Z,1.95
2022-07-30T15:25:48.797Z,1.83
2022-07-30T15:29:50.756Z,1.50
2022-07-30T15:33:52.646Z,1.67
2022-07-30T15:37:55.409Z,1.50
2022-07-30T15:41:57.239Z,1.70
2022-07-30T15:45:58.996Z,1.70
2022-07-30T15:50:03.423Z,1.67
2022-07-30T15:54:06.919Z,1.40
2022-07-30T15:58:09.537Z,1.50
2022-07-30T16:02:12.638Z,2.03
2022-07-30T16:06:14.767Z,1.40
2022-07-30T16:10:16.609Z,1.23
2022-07-30T16:14:18.767Z,2.42
2022-07-30T16:18:20.683Z,1.73
2022-07-30T16:22:24.245Z,1.55
2022-07-30T16:26:26.422Z,1.38
2022-07-30T16:30:28.377Z,1.48
2022-07-30T16:34:30.135Z,1.63
2022-07-30T16:38:31.869Z,1.30
2022-07-30T16:42:33.653Z,1.60
2022-07-30T16:46:37.011Z,1.25
2022-07-30T16:50:40.804Z,1.52
2022-07-30T16:54:42.605Z,1.80
2022-07-30T16:58:44.514Z,1.42
2022-07-30T17:02:46.378Z,1.80
2022-07-30T17:06:48.160Z,1.77
2022-07-30T17:10:49.968Z,2.03
2022-07-30T17:14:51.852Z,1.77
2022-07-30T17:18:53.586Z,2.20
2022-07-30T17:22:56.148Z,2.20
2022-07-30T17:26:58.015Z,2.38
2022-07-30T17:30:59.950Z,1.75
2022-07-30T17:35:01.763Z,1.95
2022-07-30T17:39:04.824Z,1.88
2022-07-30T17:43:07.915Z,2.05
2022-07-30T17:47:14.351Z,1.90
2022-07-30T17:51:17.139Z,1.70
2022-07-30T17:55:19.258Z,2.05
2022-07-30T17:59:21.049Z,2.03
2022-07-30T18:03:22.841Z,2.25
2022-07-30T18:07:24.714Z,2.17
2022-07-30T18:11:26.554Z,2.15
2022-07-30T18:15:28.546Z,1.83
2022-07-30T18:19:30.355Z,1.83
2022-07-30T18:23:35.028Z,2.15
2022-07-30T18:27:37.090Z,1.70
2022-07-30T18:31:38.924Z,1.80
2022-07-30T18:35:40.645Z,1.70
2022-07-30T18:39:42.362Z,1.80
2022-07-30T18:43:48.185Z,2.20
2022-07-30T18:47:50.354Z,1.75
2022-07-30T18:51:52.179Z,2.00
2022-07-30T18:55:54.152Z,2.45
2022-07-30T18:59:56.004Z,2.42
2022-07-30T19:03:57.743Z,2.65
2022-07-30T19:07:59.795Z,2.30
2022-07-30T19:12:01.789Z,2.20
2022-07-30T19:16:04.211Z,2.40
2022-07-30T19:20:06.521Z,2.53
2022-07-30T19:24:09.991Z,2.65
2022-07-30T19:28:13.798Z,3.47
2022-07-30T19:32:15.579Z,2.60
2022-07-30T19:36:20.629Z,2.75
2022-07-30T19:40:22.689Z,2.17
2022-07-30T19:44:24.538Z,2.60
2022-07-30T19:48:29.369Z,2.63
2022-07-30T19:52:33.352Z,2.22
2022-07-30T19:56:37.952Z,2.30
2022-07-30T20:00:39.783Z,7.47
2022-07-30T20:04:43.571Z,7.45
2022-07-30T20:08:45.751Z,6.18
2022-07-30T20:12:50.840Z,4.90
2022-07-30T20:16:52.666Z,3.10
2022-07-30T20:20:55.091Z,3.15
2022-07-30T20:24:59.446Z,3.60
2022-07-30T20:29:03.315Z,2.90
2022-07-30T20:33:11.327Z,3.10
2022-07-30T20:37:17.815Z,3.65
2022-07-30T20:41:24.174Z,3.67
2022-07-30T20:45:40.474Z,3.22
2022-07-30T20:49:42.660Z,2.90
2022-07-30T20:53:45.038Z,3.13
2022-07-30T20:57:58.678Z,3.05
2022-07-30T21:02:09.866Z,3.40
2022-07-30T21:06:17.096Z,3.50
2022-07-30T21:10:19.934Z,4.13
2022-07-30T21:14:25.775Z,5.93
2022-07-30T21:18:27.720Z,6.90
2022-07-30T21:22:29.460Z,3.47
2022-07-30T21:26:31.308Z,2.97
2022-07-30T21:30:33.714Z,3.20
2022-07-30T21:34:42.041Z,3.60
2022-07-30T21:38:44.646Z,3.60
2022-07-30T21:42:48.295Z,4.30
2022-07-30T21:46:50.770Z,3.85
2022-07-30T21:50:53.470Z,3.70
2022-07-30T21:54:55.214Z,3.63
2022-07-30T21:58:57.086Z,3.10
2022-07-30T22:02:58.843Z,3.38
2022-07-30T22:07:01.834Z,3.67
2022-07-30T22:11:04.272Z,3.95
2022-07-30T22:15:11.065Z,4.70
2022-07-30T22:19:17.316Z,4.82
2022-07-30T22:23:20.589Z,4.05
2022-07-30T22:27:22.335Z,3.78
2022-07-30T22:31:24.082Z,4.20
2022-07-30T22:35:33.668Z,4.72
2022-07-30T22:39:51.650Z,4.32
2022-07-30T22:43:54.827Z,3.50
2022-07-30T22:47:57.137Z,3.92
2022-07-30T22:52:06.952Z,4.25
2022-07-30T22:56:23.894Z,3.72
2022-07-30T23:00:27.123Z,4.20
2022-07-30T23:04:30.378Z,3.70
2022-07-30T23:08:34.637Z,3.80
2022-07-30T23:12:36.625Z,4.00
2022-07-30T23:16:39.602Z,3.60
2022-07-30T23:20:41.554Z,3.78
2022-07-30T23:24:43.277Z,3.42
2022-07-30T23:28:44.994Z,3.45
2022-07-30T23:32:46.894Z,3.90
2022-07-30T23:36:49.194Z,3.55
2022-07-30T23:40:50.941Z,3.53
2022-07-30T23:44:52.886Z,3.80
2022-07-30T23:48:54.709Z,3.88
2022-07-30T23:52:56.806Z,3.70
2022-07-30T23:56:58.743Z,3.70
